createdAt,value
2023-02-14T00:02:04.100Z,8.60
2023-02-14T00:04:38.509Z,9.70
2023-02-14T00:07:10.792Z,8.00
2023-02-14T00:09:42.996Z,10.70
2023-02-14T00:12:15.207Z,11.80
2023-02-14T00:15:05.299Z,19.00
2023-02-14T00:17:37.439Z,20.00
2023-02-14T00:20:13.488Z,27.40
2023-02-14T00:22:46.305Z,13.20
2023-02-14T00:25:19.446Z,49.50
2023-02-14T00:27:51.845Z,19.70
2023-02-14T00:30:24.266Z,23.50
2023-02-14T00:32:56.513Z,21.20
2023-02-14T00:35:28.658Z,11.60
2023-02-14T00:38:00.798Z,22.10
2023-02-14T00:40:32.970Z,30.20
2023-02-14T00:43:05.188Z,11.70
2023-02-14T00:45:37.519Z,15.90
2023-02-14T00:48:09.856Z,9.30
2023-02-14T00:50:42.949Z,13.20
2023-02-14T00:53:18.646Z,10.20
2023-02-14T00:55:50.832Z,9.60
2023-02-14T00:58:23.041Z,9.50
2023-02-14T01:00:55.622Z,11.70
2023-02-14T01:03:28.434Z,9.50
2023-02-14T01:06:00.898Z,15.30
2023-02-14T01:08:35.649Z,10.10
2023-02-14T01:11:15.166Z,25.70
2023-02-14T01:13:47.898Z,9.30
2023-02-14T01:16:24.023Z,22.80
2023-02-14T01:18:56.640Z,38.20
2023-02-14T01:21:30.622Z,21.00
2023-02-14T01:24:04.524Z,30.50
2023-02-14T01:26:37.518Z,12.30
2023-02-14T01:29:09.799Z,10.00
2023-02-14T01:31:42.279Z,8.30
2023-02-14T01:34:14.535Z,8.90
2023-02-14T01:36:46.808Z,8.50
2023-02-14T01:39:19.283Z,8.80
2023-02-14T01:41:51.581Z,9.40
2023-02-14T01:45:09.432Z,9.20
2023-02-14T01:47:44.894Z,8.90
2023-02-14T01:50:22.974Z,9.70
2023-02-14T01:52:59.085Z,8.70
2023-02-14T01:55:34.889Z,10.10
2023-02-14T01:58:11.920Z,9.70
2023-02-14T02:01:00.800Z,8.60
2023-02-14T02:03:37.254Z,8.70
2023-02-14T02:06:15.951Z,8.20
2023-02-14T02:08:55.667Z,9.40
2023-02-14T02:11:28.705Z,8.40
2023-02-14T02:14:00.950Z,9.30
2023-02-14T02:16:59.016Z,8.70
2023-02-14T02:19:56.517Z,10.00
2023-02-14T02:23:00.185Z,10.30
2023-02-14T02:25:55.968Z,10.00
2023-02-14T02:31:43.486Z,9.30
2023-02-14T02:34:50.267Z,9.10
2023-02-14T02:37:43.919Z,8.70
2023-02-14T02:40:30.596Z,8.80
2023-02-14T02:43:24.900Z,9.10
2023-02-14T02:46:21.784Z,9.10
2023-02-14T02:49:01.128Z,9.70
2023-02-14T02:51:58.610Z,10.20
2023-02-14T02:54:37.024Z,9.40
2023-02-14T02:57:14.902Z,9.80
2023-02-14T02:59:48.837Z,10.20
2023-02-14T03:02:26.713Z,9.90
2023-02-14T03:05:03.649Z,11.50
2023-02-14T03:07:39.622Z,9.90
2023-02-14T03:10:16.068Z,9.70
2023-02-14T03:13:34.323Z,9.30
2023-02-14T03:16:26.048Z,9.30
2023-02-14T03:19:22.791Z,11.50
2023-02-14T03:22:00.414Z,9.30
2023-02-14T03:24:41.297Z,9.70
2023-02-14T03:27:21.239Z,9.50
2023-02-14T03:30:04.330Z,10.30
2023-02-14T03:32:45.644Z,9.90
2023-02-14T03:35:25.365Z,11.70
2023-02-14T03:38:07.339Z,9.90
2023-02-14T03:40:44.785Z,9.20
2023-02-14T03:43:23.474Z,8.90
2023-02-14T03:46:03.492Z,8.80
2023-02-14T03:48:36.976Z,9.50
2023-02-14T03:51:13.138Z,9.80
2023-02-14T03:53:49.146Z,10.00
2023-02-14T03:56:30.121Z,11.60
2023-02-14T03:59:08.968Z,11.50
2023-02-14T04:01:46.756Z,10.70
2023-02-14T04:04:22.395Z,10.30
2023-02-14T04:06:54.848Z,9.70
2023-02-14T04:09:27.041Z,8.90
2023-02-14T04:11:59.283Z,9.40
2023-02-14T04:14:31.553Z,9.10
2023-02-14T04:17:22.053Z,8.90
2023-02-14T04:19:54.271Z,9.10
2023-02-14T04:22:26.414Z,10.70
2023-02-14T04:24:58.530Z,10.40
2023-02-14T04:27:30.929Z,10.30
2023-02-14T04:30:03.282Z,10.90
2023-02-14T04:32:35.569Z,10.50
2023-02-14T04:35:08.598Z,10.80
2023-02-14T04:37:41.061Z,10.70
2023-02-14T04:40:17.243Z,11.30
2023-02-14T04:42:50.251Z,11.00
2023-02-14T04:45:22.838Z,10.80
2023-02-14T04:47:54.957Z,9.80
2023-02-14T04:50:27.224Z,9.80
2023-02-14T04:52:59.468Z,12.40
2023-02-14T04:55:31.840Z,12.40
2023-02-14T04:58:04.011Z,9.90
2023-02-14T05:00:36.580Z,11.10
2023-02-14T05:03:08.962Z,11.50
2023-02-14T05:05:41.169Z,11.00
2023-02-14T05:08:14.552Z,9.80
2023-02-14T05:10:46.731Z,10.00
2023-02-14T05:13:18.877Z,12.00
2023-02-14T05:15:51.058Z,9.40
2023-02-14T05:18:23.454Z,10.20
2023-02-14T05:20:56.564Z,9.20
2023-02-14T05:23:28.843Z,10.80
2023-02-14T05:26:01.264Z,9.00
2023-02-14T05:28:33.664Z,12.00
2023-02-14T05:31:06.153Z,10.80
2023-02-14T05:33:38.368Z,10.60
2023-02-14T05:36:11.485Z,11.90
2023-02-14T05:38:43.692Z,12.70
2023-02-14T05:41:15.913Z,10.60
2023-02-14T05:43:48.132Z,14.20
2023-02-14T05:46:20.303Z,10.40
2023-02-14T05:48:52.443Z,9.80
2023-02-14T05:51:24.589Z,10.20
2023-02-14T05:53:57.960Z,11.80
2023-02-14T05:56:30.231Z,10.30
2023-02-14T05:59:02.398Z,13.00
2023-02-14T06:01:34.823Z,11.60
2023-02-14T06:04:07.003Z,15.60
2023-02-14T06:06:39.137Z,23.90
2023-02-14T06:09:11.355Z,15.30
2023-02-14T06:11:43.599Z,13.70
2023-02-14T06:14:15.796Z,21.70
2023-02-14T06:16:48.027Z,12.90
2023-02-14T06:19:20.411Z,17.70
2023-02-14T06:21:52.715Z,9.90
2023-02-14T06:24:24.982Z,10.50
2023-02-14T06:26:57.280Z,9.50
2023-02-14T06:29:29.854Z,10.30
2023-02-14T06:32:05.986Z,9.70
2023-02-14T06:34:39.941Z,10.40
2023-02-14T06:37:12.149Z,12.30
2023-02-14T06:39:45.467Z,15.20
2023-02-14T06:42:17.734Z,14.70
2023-02-14T06:44:49.903Z,12.60
2023-02-14T06:47:22.006Z,11.30
2023-02-14T06:49:54.190Z,12.40
2023-02-14T06:52:26.460Z,13.00
2023-02-14T06:54:58.610Z,12.20
2023-02-14T06:57:30.777Z,11.90
2023-02-14T07:00:03.406Z,12.80
2023-02-14T07:02:35.685Z,13.10
2023-02-14T07:05:08.787Z,11.90
2023-02-14T07:07:41.043Z,13.80
2023-02-14T07:10:15.875Z,16.00
2023-02-14T07:12:48.067Z,15.30
2023-02-14T07:15:20.580Z,15.10
2023-02-14T07:17:52.802Z,13.20
2023-02-14T07:20:25.047Z,12.90
2023-02-14T07:22:57.164Z,12.40
2023-02-14T07:25:29.459Z,12.80
2023-02-14T07:28:02.298Z,10.90
2023-02-14T07:30:34.587Z,13.90
2023-02-14T07:33:06.989Z,50.30
2023-02-14T07:35:39.234Z,110.30
2023-02-14T07:38:11.453Z,77.00
2023-02-14T07:40:43.735Z,17.80
2023-02-14T07:43:15.930Z,15.20
2023-02-14T07:45:48.926Z,16.60
2023-02-14T07:48:21.302Z,17.30
2023-02-14T07:50:56.674Z,19.90
2023-02-14T07:53:28.892Z,16.10
2023-02-14T07:56:01.082Z,12.40
2023-02-14T07:58:33.329Z,14.60
2023-02-14T08:01:05.650Z,14.90
2023-02-14T08:03:37.973Z,14.80
2023-02-14T08:06:10.114Z,12.30
2023-02-14T08:08:42.317Z,10.90
2023-02-14T08:11:36.522Z,11.90
2023-02-14T08:14:08.992Z,10.20
2023-02-14T08:16:41.133Z,10.60
2023-02-14T08:19:13.277Z,10.90
2023-02-14T08:21:45.438Z,10.50
2023-02-14T08:24:17.534Z,11.70
2023-02-14T08:26:49.702Z,10.40
2023-02-14T08:29:22.023Z,10.90
2023-02-14T08:31:54.620Z,8.70
2023-02-14T08:34:26.870Z,9.20
2023-02-14T08:36:59.016Z,8.80
2023-02-14T08:39:31.311Z,13.80
2023-02-14T08:42:03.465Z,14.40
2023-02-14T08:44:35.906Z,19.70
2023-02-14T08:47:08.354Z,15.20
2023-02-14T08:49:40.512Z,11.40
2023-02-14T08:52:12.690Z,12.60
2023-02-14T08:54:44.876Z,11.80
2023-02-14T08:57:17.129Z,9.80
2023-02-14T08:59:49.738Z,13.80
2023-02-14T09:02:22.159Z,10.50
2023-02-14T09:04:54.346Z,9.10
2023-02-14T09:07:26.654Z,10.50
2023-02-14T09:09:58.958Z,9.50
2023-02-14T09:12:31.163Z,8.90
2023-02-14T09:15:03.303Z,8.80
2023-02-14T09:17:35.496Z,8.90
2023-02-14T09:20:12.782Z,9.00
2023-02-14T09:22:46.129Z,10.30
2023-02-14T09:25:21.423Z,10.80
2023-02-14T09:27:53.551Z,11.50
2023-02-14T09:30:25.924Z,18.70
2023-02-14T09:32:58.317Z,15.70
2023-02-14T09:35:30.482Z,14.30
2023-02-14T09:38:17.795Z,12.10
2023-02-14T09:40:50.623Z,8.30
2023-02-14T09:43:32.341Z,8.90
2023-02-14T09:46:08.127Z,19.80
2023-02-14T09:48:43.904Z,12.40
2023-02-14T09:51:20.184Z,18.90
2023-02-14T09:53:55.678Z,11.10
2023-02-14T09:56:42.710Z,8.90
2023-02-14T09:59:25.456Z,10.60
2023-02-14T10:02:04.384Z,11.70
2023-02-14T10:04:40.417Z,11.10
2023-02-14T10:07:19.271Z,9.90
2023-02-14T10:10:01.283Z,9.60
2023-02-14T10:12:36.769Z,12.70
2023-02-14T10:15:17.124Z,9.90
2023-02-14T10:17:55.203Z,9.10
2023-02-14T10:20:32.824Z,7.60
2023-02-14T10:23:12.416Z,7.60
2023-02-14T10:25:50.501Z,8.50
2023-02-14T10:28:31.403Z,9.50
2023-02-14T10:31:19.059Z,9.60
2023-02-14T10:33:57.621Z,13.20
2023-02-14T10:36:46.731Z,9.50
2023-02-14T10:39:40.794Z,8.40
2023-02-14T10:42:22.488Z,8.70
2023-02-14T10:45:06.018Z,10.30
2023-02-14T10:47:47.888Z,8.30
2023-02-14T10:50:26.615Z,14.00
2023-02-14T10:53:11.255Z,13.40
2023-02-14T10:55:50.345Z,14.60
2023-02-14T10:58:24.956Z,10.60
2023-02-14T11:01:04.353Z,9.70
2023-02-14T11:03:42.205Z,8.20
2023-02-14T11:06:17.221Z,8.30
2023-02-14T11:08:49.411Z,9.70
2023-02-14T11:11:26.130Z,10.50
2023-02-14T11:13:58.665Z,10.00
2023-02-14T11:16:36.118Z,13.70
2023-02-14T11:19:24.339Z,10.10
2023-02-14T11:21:58.453Z,12.50
2023-02-14T11:24:33.230Z,8.80
2023-02-14T11:27:15.748Z,8.60
2023-02-14T11:29:52.741Z,8.60
2023-02-14T11:32:26.998Z,10.10
2023-02-14T11:35:03.997Z,11.10
2023-02-14T11:37:41.080Z,10.20
2023-02-14T11:40:30.267Z,9.90
2023-02-14T11:43:19.895Z,9.10
2023-02-14T11:46:04.998Z,9.20
2023-02-14T11:48:39.142Z,9.70
2023-02-14T11:51:14.624Z,10.20
2023-02-14T11:53:50.383Z,10.00
2023-02-14T11:56:24.631Z,9.70
2023-02-14T11:59:03.127Z,8.70
2023-02-14T12:01:38.720Z,7.70
2023-02-14T12:04:22.099Z,10.50
2023-02-14T12:06:54.417Z,8.70
2023-02-14T12:09:31.680Z,9.90
2023-02-14T12:12:07.784Z,11.20
2023-02-14T12:14:39.940Z,11.10
2023-02-14T12:17:26.268Z,9.20
2023-02-14T12:20:04.768Z,8.80
2023-02-14T12:22:43.120Z,8.30
2023-02-14T12:25:21.009Z,8.70
2023-02-14T12:27:58.109Z,9.20
2023-02-14T12:30:33.772Z,8.40
2023-02-14T12:33:16.290Z,9.60
2023-02-14T12:35:54.733Z,9.30
2023-02-14T12:38:37.546Z,10.20
2023-02-14T12:41:20.725Z,10.50
2023-02-14T12:43:55.500Z,15.30
2023-02-14T12:47:15.848Z,9.30
2023-02-14T12:50:18.713Z,9.10
2023-02-14T12:53:07.450Z,9.40
2023-02-14T12:55:58.304Z,9.30
2023-02-14T12:58:42.503Z,9.90
2023-02-14T13:01:39.231Z,9.80
2023-02-14T13:04:41.268Z,8.90
2023-02-14T13:07:24.816Z,10.70
2023-02-14T13:10:06.108Z,10.70
2023-02-14T13:12:43.735Z,9.00
2023-02-14T13:15:27.582Z,7.80
2023-02-14T13:18:08.547Z,10.30
2023-02-14T13:20:51.751Z,10.70
2023-02-14T13:23:30.548Z,8.20
2023-02-14T13:26:07.583Z,8.00
2023-02-14T13:28:42.302Z,7.80
2023-02-14T13:31:15.332Z,9.40
2023-02-14T13:33:53.118Z,10.30
2023-02-14T13:36:26.681Z,8.90
2023-02-14T13:39:00.603Z,8.90
2023-02-14T13:41:34.461Z,8.30
2023-02-14T13:44:06.939Z,8.20
2023-02-14T13:47:05.400Z,8.00
2023-02-14T13:49:46.773Z,8.10
2023-02-14T13:52:47.111Z,9.40
2023-02-14T13:55:23.146Z,9.00
2023-02-14T13:58:07.140Z,9.60
2023-02-14T14:00:46.952Z,9.80
2023-02-14T14:03:56.417Z,9.50
2023-02-14T14:06:29.361Z,9.80
2023-02-14T14:09:01.471Z,9.70
2023-02-14T14:12:02.063Z,9.00
2023-02-14T14:14:40.005Z,7.30
2023-02-14T14:17:27.957Z,8.10
2023-02-14T14:20:01.207Z,7.30
2023-02-14T14:22:33.676Z,8.10
2023-02-14T14:25:09.235Z,8.40
2023-02-14T14:27:46.982Z,8.90
2023-02-14T14:30:25.241Z,8.00
2023-02-14T14:32:57.439Z,8.60
2023-02-14T14:35:29.571Z,12.70
2023-02-14T14:38:04.222Z,9.50
2023-02-14T14:40:39.386Z,8.70
2023-02-14T14:43:15.932Z,9.60
2023-02-14T14:45:53.019Z,9.10
2023-02-14T14:48:32.432Z,8.40
2023-02-14T14:51:05.405Z,8.50
2023-02-14T14:53:44.551Z,8.90
2023-02-14T14:56:24.070Z,12.30
2023-02-14T14:58:56.549Z,15.10
2023-02-14T15:01:46.139Z,10.80
2023-02-14T15:04:26.152Z,10.40
2023-02-14T15:07:00.105Z,10.50
2023-02-14T15:09:35.074Z,10.30
2023-02-14T15:14:56.995Z,10.10
2023-02-14T15:17:32.681Z,10.80
2023-02-14T15:20:09.236Z,11.00
2023-02-14T15:22:45.646Z,11.30
2023-02-14T15:25:22.486Z,12.40
2023-02-14T15:27:54.912Z,11.90
2023-02-14T15:30:34.088Z,11.50
2023-02-14T15:33:08.597Z,16.00
2023-02-14T15:35:44.020Z,19.80
2023-02-14T15:38:16.924Z,28.70
2023-02-14T15:40:49.118Z,27.00
2023-02-14T15:43:32.167Z,32.10
2023-02-14T15:46:18.887Z,26.90
2023-02-14T15:48:51.718Z,27.30
2023-02-14T15:51:25.981Z,27.70
2023-02-14T15:54:00.783Z,29.90
2023-02-14T15:56:36.712Z,30.00
2023-02-14T15:59:17.306Z,19.90
2023-02-14T16:01:56.030Z,19.00
2023-02-14T16:04:30.781Z,15.60
2023-02-14T16:07:24.856Z,16.00
2023-02-14T16:10:22.167Z,16.70
2023-02-14T16:13:00.317Z,15.10
2023-02-14T16:15:34.282Z,17.10
2023-02-14T16:18:18.259Z,19.00
2023-02-14T16:20:51.464Z,20.80
2023-02-14T16:23:27.116Z,22.00
2023-02-14T16:25:59.355Z,21.00
2023-02-14T16:28:37.014Z,55.20
2023-02-14T16:31:16.581Z,207.70
2023-02-14T16:33:48.897Z,248.50
2023-02-14T16:36:25.798Z,285.00
2023-02-14T16:38:58.534Z,214.20
2023-02-14T16:41:33.894Z,222.10
2023-02-14T16:44:07.780Z,236.10
2023-02-14T16:46:41.630Z,322.10
2023-02-14T16:49:15.728Z,281.20
2023-02-14T16:51:49.614Z,208.50
2023-02-14T16:54:24.866Z,209.40
2023-02-14T16:56:59.784Z,207.30
2023-02-14T16:59:32.668Z,156.80
2023-02-14T17:02:05.068Z,158.40
2023-02-14T17:04:37.364Z,298.20
2023-02-14T17:07:10.019Z,172.10
2023-02-14T17:09:45.955Z,82.60
2023-02-14T17:12:22.421Z,60.20
2023-02-14T17:14:59.876Z,54.20
2023-02-14T17:17:32.958Z,255.40
2023-02-14T17:20:06.427Z,164.50
2023-02-14T17:22:39.296Z,87.90
2023-02-14T17:25:12.172Z,74.90
2023-02-14T17:27:46.324Z,42.50
2023-02-14T17:30:19.189Z,29.00
2023-02-14T17:32:51.392Z,60.60
2023-02-14T17:35:23.762Z,43.80
2023-02-14T17:37:56.192Z,60.10
2023-02-14T17:40:29.824Z,53.40
2023-02-14T17:43:03.023Z,29.90
2023-02-14T17:45:35.189Z,40.40
2023-02-14T17:48:10.260Z,31.50
2023-02-14T17:50:44.157Z,49.80
2023-02-14T17:53:18.038Z,39.20
2023-02-14T17:55:50.316Z,61.20
2023-02-14T17:58:22.571Z,44.30
2023-02-14T18:00:54.769Z,92.20
2023-02-14T18:03:26.920Z,41.40
2023-02-14T18:06:01.128Z,57.80
2023-02-14T18:08:34.905Z,36.90
2023-02-14T18:11:09.789Z,35.60
2023-02-14T18:16:14.706Z,47.10
2023-02-14T18:18:47.280Z,59.00
2023-02-14T18:21:21.859Z,65.60
2023-02-14T18:23:54.007Z,67.80
2023-02-14T18:26:27.003Z,40.30
2023-02-14T18:28:59.679Z,47.80
2023-02-14T18:31:31.938Z,41.20
2023-02-14T18:34:05.163Z,81.90
2023-02-14T18:36:39.457Z,70.20
2023-02-14T18:39:11.931Z,40.50
2023-02-14T18:41:44.363Z,35.00
2023-02-14T18:44:16.960Z,39.00
2023-02-14T18:46:49.059Z,58.10
2023-02-14T18:49:21.369Z,33.80
2023-02-14T18:51:53.640Z,24.50
2023-02-14T18:54:25.771Z,36.60
2023-02-14T18:56:57.907Z,42.90
2023-02-14T18:59:30.318Z,57.90
2023-02-14T19:02:02.890Z,75.00
2023-02-14T19:04:35.092Z,77.60
2023-02-14T19:07:07.336Z,66.00
2023-02-14T19:09:40.318Z,50.20
2023-02-14T19:12:13.223Z,37.80
2023-02-14T19:14:45.498Z,35.40
2023-02-14T19:17:18.706Z,47.20
2023-02-14T19:19:52.311Z,49.50
2023-02-14T19:22:24.585Z,34.10
2023-02-14T19:24:56.805Z,29.00
2023-02-14T19:27:28.989Z,31.80
2023-02-14T19:30:01.437Z,29.50
2023-02-14T19:32:33.818Z,30.00
2023-02-14T19:35:06.311Z,33.80
2023-02-14T19:37:38.431Z,42.70
2023-02-14T19:40:13.563Z,62.60
2023-02-14T19:42:45.718Z,50.50
2023-02-14T19:45:18.164Z,42.20
2023-02-14T19:47:50.652Z,39.80
2023-02-14T19:50:22.885Z,43.00
2023-02-14T19:52:55.056Z,37.10
2023-02-14T19:55:27.912Z,46.80
2023-02-14T19:58:00.140Z,38.50
2023-02-14T20:00:32.428Z,39.60
2023-02-14T20:03:06.263Z,39.20
2023-02-14T20:05:39.923Z,250.40
2023-02-14T20:08:12.322Z,141.70
2023-02-14T20:10:44.765Z,60.90
2023-02-14T20:13:16.954Z,54.70
2023-02-14T20:15:49.172Z,35.60
2023-02-14T20:18:21.317Z,30.10
2023-02-14T20:21:05.612Z,31.00
2023-02-14T20:23:37.812Z,33.70
2023-02-14T20:26:14.485Z,31.30
2023-02-14T20:28:48.917Z,29.90
2023-02-14T20:31:21.177Z,30.30
2023-02-14T20:33:53.733Z,27.80
2023-02-14T20:36:26.977Z,27.70
2023-02-14T20:39:00.658Z,28.20
2023-02-14T20:41:34.618Z,27.60
2023-02-14T20:44:08.231Z,28.80
2023-02-14T20:46:41.354Z,27.90
2023-02-14T20:49:14.043Z,26.70
2023-02-14T20:51:49.768Z,26.50
2023-02-14T20:54:24.016Z,25.60
2023-02-14T20:56:57.973Z,27.30
2023-02-14T20:59:30.309Z,27.50
2023-02-14T21:02:03.534Z,31.40
2023-02-14T21:04:35.670Z,30.00
2023-02-14T21:07:10.335Z,31.60
2023-02-14T21:09:42.659Z,29.40
2023-02-14T21:12:14.940Z,29.20
2023-02-14T21:14:47.123Z,30.20
2023-02-14T21:17:19.275Z,52.80
2023-02-14T21:19:51.471Z,70.60
2023-02-14T21:22:23.692Z,85.30
2023-02-14T21:24:55.985Z,87.80
2023-02-14T21:27:28.493Z,115.60
2023-02-14T21:30:00.944Z,134.60
2023-02-14T21:32:33.136Z,128.50
2023-02-14T21:35:05.507Z,123.10
2023-02-14T21:37:37.710Z,113.30
2023-02-14T21:40:11.942Z,115.20
2023-02-14T21:42:44.164Z,101.30
2023-02-14T21:45:34.408Z,103.00
2023-02-14T21:48:24.857Z,119.80
2023-02-14T21:50:57.105Z,107.80
2023-02-14T21:53:29.293Z,89.20
2023-02-14T21:56:10.526Z,105.50
2023-02-14T21:58:43.280Z,102.50
2023-02-14T22:01:20.080Z,91.80
2023-02-14T22:03:52.736Z,85.50
2023-02-14T22:06:25.698Z,71.30
2023-02-14T22:09:00.175Z,73.30
2023-02-14T22:11:32.978Z,75.10
2023-02-14T22:14:05.590Z,76.60
2023-02-14T22:16:38.298Z,79.60
2023-02-14T22:19:14.013Z,90.50
2023-02-14T22:21:46.468Z,81.70
2023-02-14T22:24:18.896Z,87.20
2023-02-14T22:26:51.109Z,121.50
2023-02-14T22:29:23.240Z,80.00
2023-02-14T22:31:55.582Z,81.40
2023-02-14T22:34:27.811Z,72.40
2023-02-14T22:37:00.107Z,70.30
2023-02-14T22:39:32.513Z,63.40
2023-02-14T22:42:06.982Z,59.60
2023-02-14T22:44:39.172Z,65.00
2023-02-14T22:47:11.343Z,69.50
2023-02-14T22:49:43.642Z,70.30
2023-02-14T22:52:15.937Z,68.10
2023-02-14T22:54:48.388Z,76.70
2023-02-14T22:57:20.869Z,85.90
2023-02-14T22:59:53.101Z,67.20
2023-02-14T23:02:25.412Z,49.10
2023-02-14T23:04:57.516Z,49.50
2023-02-14T23:07:29.748Z,49.70
2023-02-14T23:10:01.983Z,39.50
2023-02-14T23:12:52.012Z,37.70
2023-02-14T23:15:41.514Z,41.00
2023-02-14T23:18:33.027Z,42.50
2023-02-14T23:21:22.961Z,53.80
2023-02-14T23:23:55.156Z,47.80
2023-02-14T23:26:27.345Z,49.20
2023-02-14T23:28:59.515Z,51.20
2023-02-14T23:31:31.797Z,44.80
2023-02-14T23:34:04.014Z,47.90
2023-02-14T23:36:36.168Z,47.70
2023-02-14T23:39:08.587Z,48.40
2023-02-14T23:41:49.968Z,48.60
2023-02-14T23:44:24.162Z,43.30
2023-02-14T23:46:58.607Z,48.60
2023-02-14T23:49:31.886Z,46.10
2023-02-14T23:52:04.833Z,46.50
2023-02-14T23:54:37.667Z,49.30
2023-02-14T23:57:10.359Z,51.40
2023-02-14T23:59:42.492Z,53.10
